sensor_id;sensor_type;location;lat;lon;timestamp;temperature;humidity
25250;DHT22;13201;51.148;13.738;2024-03-02T00:01:10;10.70;99.90
25250;DHT22;13201;51.148;13.738;2024-03-02T00:03:37;10.70;99.90
25250;DHT22;13201;51.148;13.738;2024-03-02T00:06:04;10.70;99.90
25250;DHT22;13201;51.148;13.738;2024-03-02T00:08:29;10.70;99.90
25250;DHT22;13201;51.148;13.738;2024-03-02T00:10:59;10.80;99.90
25250;DHT22;13201;51.148;13.738;2024-03-02T00:13:26;10.80;99.90
25250;DHT22;13201;51.148;13.738;2024-03-02T00:15:55;10.80;99.90
25250;DHT22;13201;51.148;13.738;2024-03-02T00:18:31;10.80;99.90
25250;DHT22;13201;51.148;13.738;2024-03-02T00:20:58;10.80;99.90
25250;DHT22;13201;51.148;13.738;2024-03-02T00:23:27;10.80;99.90
25250;DHT22;13201;51.148;13.738;2024-03-02T00:25:55;10.80;99.90
25250;DHT22;13201;51.148;13.738;2024-03-02T00:31:06;10.70;99.90
25250;DHT22;13201;51.148;13.738;2024-03-02T00:33:42;10.70;99.90
25250;DHT22;13201;51.148;13.738;2024-03-02T00:36:09;10.70;99.90
25250;DHT22;13201;51.148;13.738;2024-03-02T00:41:22;10.50;99.90
25250;DHT22;13201;51.148;13.738;2024-03-02T00:44:03;10.60;99.90
25250;DHT22;13201;51.148;13.738;2024-03-02T00:46:32;10.50;99.90
25250;DHT22;13201;51.148;13.738;2024-03-02T00:49:00;10.50;99.90
25250;DHT22;13201;51.148;13.738;2024-03-02T00:51:31;10.50;99.90
25250;DHT22;13201;51.148;13.738;2024-03-02T00:54:00;10.50;99.90
25250;DHT22;13201;51.148;13.738;2024-03-02T00:56:26;10.60;99.90
25250;DHT22;13201;51.148;13.738;2024-03-02T00:58:53;10.60;99.90
25250;DHT22;13201;51.148;13.738;2024-03-02T01:01:19;10.60;99.90
25250;DHT22;13201;51.148;13.738;2024-03-02T01:27:50;9.60;99.90
25250;DHT22;13201;51.148;13.738;2024-03-02T01:30:16;9.50;99.90
25250;DHT22;13201;51.148;13.738;2024-03-02T01:32:42;9.60;99.90
25250;DHT22;13201;51.148;13.738;2024-03-02T01:35:07;9.70;99.90
25250;DHT22;13201;51.148;13.738;2024-03-02T01:37:33;9.80;99.90
25250;DHT22;13201;51.148;13.738;2024-03-02T01:39:59;9.80;99.90
25250;DHT22;13201;51.148;13.738;2024-03-02T01:42:24;9.90;99.90
25250;DHT22;13201;51.148;13.738;2024-03-02T01:44:51;10.00;99.90
25250;DHT22;13201;51.148;13.738;2024-03-02T01:47:16;10.10;99.90
25250;DHT22;13201;51.148;13.738;2024-03-02T01:49:42;10.30;99.90
25250;DHT22;13201;51.148;13.738;2024-03-02T01:52:08;10.30;99.90
25250;DHT22;13201;51.148;13.738;2024-03-02T01:54:33;10.30;99.90
25250;DHT22;13201;51.148;13.738;2024-03-02T01:57:00;10.10;99.90
25250;DHT22;13201;51.148;13.738;2024-03-02T01:59:25;10.00;99.90
25250;DHT22;13201;51.148;13.738;2024-03-02T02:01:51;10.00;99.90
25250;DHT22;13201;51.148;13.738;2024-03-02T02:04:17;10.00;99.90
25250;DHT22;13201;51.148;13.738;2024-03-02T02:06:44;10.00;99.90
25250;DHT22;13201;51.148;13.738;2024-03-02T02:09:10;10.00;99.90
25250;DHT22;13201;51.148;13.738;2024-03-02T02:11:35;10.20;99.90
25250;DHT22;13201;51.148;13.738;2024-03-02T02:14:01;10.30;99.90
25250;DHT22;13201;51.148;13.738;2024-03-02T02:16:27;10.40;99.90
25250;DHT22;13201;51.148;13.738;2024-03-02T02:18:52;10.40;99.90
25250;DHT22;13201;51.148;13.738;2024-03-02T02:21:22;10.40;99.90
25250;DHT22;13201;51.148;13.738;2024-03-02T02:23:48;10.40;99.90
25250;DHT22;13201;51.148;13.738;2024-03-02T02:26:14;10.40;99.90
25250;DHT22;13201;51.148;13.738;2024-03-02T02:28:39;10.40;99.90
25250;DHT22;13201;51.148;13.738;2024-03-02T02:31:12;10.50;99.90
25250;DHT22;13201;51.148;13.738;2024-03-02T02:33:39;10.50;99.90
25250;DHT22;13201;51.148;13.738;2024-03-02T02:36:05;10.40;99.90
25250;DHT22;13201;51.148;13.738;2024-03-02T02:38:33;10.30;99.90
25250;DHT22;13201;51.148;13.738;2024-03-02T02:41:02;10.40;99.90
25250;DHT22;13201;51.148;13.738;2024-03-02T02:43:27;10.50;99.90
25250;DHT22;13201;51.148;13.738;2024-03-02T02:45:53;10.40;99.90
25250;DHT22;13201;51.148;13.738;2024-03-02T02:48:19;10.60;99.90
25250;DHT22;13201;51.148;13.738;2024-03-02T02:50:44;10.50;99.90
25250;DHT22;13201;51.148;13.738;2024-03-02T02:53:10;10.40;99.90
25250;DHT22;13201;51.148;13.738;2024-03-02T02:55:36;10.40;99.90
25250;DHT22;13201;51.148;13.738;2024-03-02T02:58:06;10.40;99.90
25250;DHT22;13201;51.148;13.738;2024-03-02T03:00:32;10.50;99.90
25250;DHT22;13201;51.148;13.738;2024-03-02T03:02:58;10.50;99.90
25250;DHT22;13201;51.148;13.738;2024-03-02T03:05:23;10.50;99.90
25250;DHT22;13201;51.148;13.738;2024-03-02T03:07:49;10.40;99.90
25250;DHT22;13201;51.148;13.738;2024-03-02T03:10:16;10.40;99.90
25250;DHT22;13201;51.148;13.738;2024-03-02T03:12:42;10.50;99.90
25250;DHT22;13201;51.148;13.738;2024-03-02T03:15:09;10.50;99.90
25250;DHT22;13201;51.148;13.738;2024-03-02T03:17:35;10.50;99.90
25250;DHT22;13201;51.148;13.738;2024-03-02T03:20:02;10.50;99.90
25250;DHT22;13201;51.148;13.738;2024-03-02T03:22:29;10.50;99.90
25250;DHT22;13201;51.148;13.738;2024-03-02T03:24:55;10.50;99.90
25250;DHT22;13201;51.148;13.738;2024-03-02T03:27:21;10.50;99.90
25250;DHT22;13201;51.148;13.738;2024-03-02T03:29:47;10.30;99.90
25250;DHT22;13201;51.148;13.738;2024-03-02T03:32:12;10.30;99.90
25250;DHT22;13201;51.148;13.738;2024-03-02T03:34:38;10.30;99.90
25250;DHT22;13201;51.148;13.738;2024-03-02T03:37:04;10.30;99.90
25250;DHT22;13201;51.148;13.738;2024-03-02T03:39:30;10.40;99.90
25250;DHT22;13201;51.148;13.738;2024-03-02T03:41:55;10.40;99.90
25250;DHT22;13201;51.148;13.738;2024-03-02T03:44:21;10.40;99.90
25250;DHT22;13201;51.148;13.738;2024-03-02T03:46:47;10.40;99.90
25250;DHT22;13201;51.148;13.738;2024-03-02T03:49:12;10.20;99.90
25250;DHT22;13201;51.148;13.738;2024-03-02T03:51:38;10.20;99.90
25250;DHT22;13201;51.148;13.738;2024-03-02T03:54:04;10.30;99.90
25250;DHT22;13201;51.148;13.738;2024-03-02T03:56:29;10.30;99.90
25250;DHT22;13201;51.148;13.738;2024-03-02T03:58:55;10.30;99.90
25250;DHT22;13201;51.148;13.738;2024-03-02T04:01:21;10.30;99.90
25250;DHT22;13201;51.148;13.738;2024-03-02T04:03:48;10.30;99.90
25250;DHT22;13201;51.148;13.738;2024-03-02T04:06:13;10.30;99.90
25250;DHT22;13201;51.148;13.738;2024-03-02T04:08:41;10.10;99.90
25250;DHT22;13201;51.148;13.738;2024-03-02T04:11:06;10.00;99.90
25250;DHT22;13201;51.148;13.738;2024-03-02T04:13:33;10.00;99.90
25250;DHT22;13201;51.148;13.738;2024-03-02T04:15:59;10.00;99.90
25250;DHT22;13201;51.148;13.738;2024-03-02T04:18:24;10.00;99.90
25250;DHT22;13201;51.148;13.738;2024-03-02T04:20:50;10.20;99.90
25250;DHT22;13201;51.148;13.738;2024-03-02T04:23:16;10.00;99.90
25250;DHT22;13201;51.148;13.738;2024-03-02T04:25:41;10.00;99.90
25250;DHT22;13201;51.148;13.738;2024-03-02T04:28:07;10.10;99.90
25250;DHT22;13201;51.148;13.738;2024-03-02T04:30:33;10.20;99.90
25250;DHT22;13201;51.148;13.738;2024-03-02T04:32:59;10.10;99.90
25250;DHT22;13201;51.148;13.738;2024-03-02T04:35:24;10.10;99.90
25250;DHT22;13201;51.148;13.738;2024-03-02T04:37:51;10.20;99.90
25250;DHT22;13201;51.148;13.738;2024-03-02T04:40:16;10.20;99.90
25250;DHT22;13201;51.148;13.738;2024-03-02T04:42:42;10.20;99.90
25250;DHT22;13201;51.148;13.738;2024-03-02T04:45:08;10.00;99.90
25250;DHT22;13201;51.148;13.738;2024-03-02T04:47:34;10.00;99.90
25250;DHT22;13201;51.148;13.738;2024-03-02T04:50:00;10.00;99.90
25250;DHT22;13201;51.148;13.738;2024-03-02T04:52:26;10.00;99.90
25250;DHT22;13201;51.148;13.738;2024-03-02T04:54:51;10.10;99.90
25250;DHT22;13201;51.148;13.738;2024-03-02T04:57:35;10.20;99.90
25250;DHT22;13201;51.148;13.738;2024-03-02T05:00:01;10.30;99.90
25250;DHT22;13201;51.148;13.738;2024-03-02T05:02:27;10.30;99.90
25250;DHT22;13201;51.148;13.738;2024-03-02T05:04:52;10.30;99.90
25250;DHT22;13201;51.148;13.738;2024-03-02T05:07:18;10.30;99.90
25250;DHT22;13201;51.148;13.738;2024-03-02T05:09:43;10.30;99.90
25250;DHT22;13201;51.148;13.738;2024-03-02T05:12:10;10.30;99.90
25250;DHT22;13201;51.148;13.738;2024-03-02T05:14:55;10.30;99.90
25250;DHT22;13201;51.148;13.738;2024-03-02T05:17:21;10.30;99.90
25250;DHT22;13201;51.148;13.738;2024-03-02T05:19:47;10.30;99.90
25250;DHT22;13201;51.148;13.738;2024-03-02T05:22:13;10.30;99.90
25250;DHT22;13201;51.148;13.738;2024-03-02T05:24:39;10.20;99.90
25250;DHT22;13201;51.148;13.738;2024-03-02T05:27:04;10.30;99.90
25250;DHT22;13201;51.148;13.738;2024-03-02T05:29:31;10.20;99.90
25250;DHT22;13201;51.148;13.738;2024-03-02T05:31:57;10.20;99.90
25250;DHT22;13201;51.148;13.738;2024-03-02T05:34:22;10.20;99.90
25250;DHT22;13201;51.148;13.738;2024-03-02T05:36:48;10.20;99.90
25250;DHT22;13201;51.148;13.738;2024-03-02T05:39:14;10.20;99.90
25250;DHT22;13201;51.148;13.738;2024-03-02T05:41:39;10.20;99.90
25250;DHT22;13201;51.148;13.738;2024-03-02T05:44:05;10.10;99.90
25250;DHT22;13201;51.148;13.738;2024-03-02T05:46:31;10.10;99.90
25250;DHT22;13201;51.148;13.738;2024-03-02T05:48:57;10.20;99.90
25250;DHT22;13201;51.148;13.738;2024-03-02T05:51:23;10.10;99.90
25250;DHT22;13201;51.148;13.738;2024-03-02T05:53:48;10.10;99.90
25250;DHT22;13201;51.148;13.738;2024-03-02T05:56:14;10.00;99.90
25250;DHT22;13201;51.148;13.738;2024-03-02T05:58:40;10.10;99.90
25250;DHT22;13201;51.148;13.738;2024-03-02T06:01:12;10.10;99.90
25250;DHT22;13201;51.148;13.738;2024-03-02T06:03:37;10.10;99.90
25250;DHT22;13201;51.148;13.738;2024-03-02T06:06:04;10.10;99.90
25250;DHT22;13201;51.148;13.738;2024-03-02T06:08:29;10.20;99.90
25250;DHT22;13201;51.148;13.738;2024-03-02T06:10:55;10.20;99.90
25250;DHT22;13201;51.148;13.738;2024-03-02T06:13:21;10.20;99.90
25250;DHT22;13201;51.148;13.738;2024-03-02T06:15:47;10.20;99.90
25250;DHT22;13201;51.148;13.738;2024-03-02T06:18:13;10.20;99.90
25250;DHT22;13201;51.148;13.738;2024-03-02T06:20:38;10.30;99.90
25250;DHT22;13201;51.148;13.738;2024-03-02T06:23:04;10.30;99.90
25250;DHT22;13201;51.148;13.738;2024-03-02T06:25:30;10.30;99.90
25250;DHT22;13201;51.148;13.738;2024-03-02T06:27:56;10.20;99.90
25250;DHT22;13201;51.148;13.738;2024-03-02T06:30:22;10.30;99.90
25250;DHT22;13201;51.148;13.738;2024-03-02T06:32:47;10.30;99.90
25250;DHT22;13201;51.148;13.738;2024-03-02T06:35:13;10.30;99.90
25250;DHT22;13201;51.148;13.738;2024-03-02T06:37:39;10.30;99.90
25250;DHT22;13201;51.148;13.738;2024-03-02T06:40:06;10.30;99.90
25250;DHT22;13201;51.148;13.738;2024-03-02T06:42:33;10.40;99.90
25250;DHT22;13201;51.148;13.738;2024-03-02T06:44:59;10.30;99.90
25250;DHT22;13201;51.148;13.738;2024-03-02T06:47:25;10.30;99.90
25250;DHT22;13201;51.148;13.738;2024-03-02T06:49:51;10.30;99.90
25250;DHT22;13201;51.148;13.738;2024-03-02T06:52:16;10.40;99.90
25250;DHT22;13201;51.148;13.738;2024-03-02T06:54:42;10.40;99.90
25250;DHT22;13201;51.148;13.738;2024-03-02T06:57:08;10.40;99.90
25250;DHT22;13201;51.148;13.738;2024-03-02T06:59:33;10.30;99.90
25250;DHT22;13201;51.148;13.738;2024-03-02T07:01:59;10.30;99.90
25250;DHT22;13201;51.148;13.738;2024-03-02T07:04:25;10.30;99.90
25250;DHT22;13201;51.148;13.738;2024-03-02T07:06:51;10.40;99.90
25250;DHT22;13201;51.148;13.738;2024-03-02T07:09:17;10.40;99.90
25250;DHT22;13201;51.148;13.738;2024-03-02T07:11:42;10.30;99.90
25250;DHT22;13201;51.148;13.738;2024-03-02T07:14:08;10.30;99.90
25250;DHT22;13201;51.148;13.738;2024-03-02T07:16:36;10.40;99.90
25250;DHT22;13201;51.148;13.738;2024-03-02T07:19:03;10.40;99.90
25250;DHT22;13201;51.148;13.738;2024-03-02T07:21:29;10.40;99.90
25250;DHT22;13201;51.148;13.738;2024-03-02T07:23:54;10.40;99.90
25250;DHT22;13201;51.148;13.738;2024-03-02T07:26:20;10.30;99.90
25250;DHT22;13201;51.148;13.738;2024-03-02T07:28:47;10.40;99.90
25250;DHT22;13201;51.148;13.738;2024-03-02T07:31:15;10.40;99.90
25250;DHT22;13201;51.148;13.738;2024-03-02T07:33:41;10.50;99.90
25250;DHT22;13201;51.148;13.738;2024-03-02T07:36:07;10.40;99.90
25250;DHT22;13201;51.148;13.738;2024-03-02T07:38:33;10.40;99.90
25250;DHT22;13201;51.148;13.738;2024-03-02T07:41:00;10.40;99.90
25250;DHT22;13201;51.148;13.738;2024-03-02T07:43:26;10.40;99.90
25250;DHT22;13201;51.148;13.738;2024-03-02T07:45:52;10.50;99.90
25250;DHT22;13201;51.148;13.738;2024-03-02T07:48:18;10.50;99.90
25250;DHT22;13201;51.148;13.738;2024-03-02T07:50:44;10.60;99.90
25250;DHT22;13201;51.148;13.738;2024-03-02T07:53:10;10.50;99.90
25250;DHT22;13201;51.148;13.738;2024-03-02T07:55:35;10.50;99.90
25250;DHT22;13201;51.148;13.738;2024-03-02T07:58:01;10.60;99.90
25250;DHT22;13201;51.148;13.738;2024-03-02T08:00:27;10.50;99.90
25250;DHT22;13201;51.148;13.738;2024-03-02T08:02:54;10.50;99.90
25250;DHT22;13201;51.148;13.738;2024-03-02T08:05:20;10.50;99.90
25250;DHT22;13201;51.148;13.738;2024-03-02T08:07:46;10.60;99.90
25250;DHT22;13201;51.148;13.738;2024-03-02T08:10:12;10.50;99.90
25250;DHT22;13201;51.148;13.738;2024-03-02T08:12:38;10.60;99.90
25250;DHT22;13201;51.148;13.738;2024-03-02T08:15:04;10.60;99.90
25250;DHT22;13201;51.148;13.738;2024-03-02T08:17:30;10.60;99.90
25250;DHT22;13201;51.148;13.738;2024-03-02T08:19:56;10.60;99.90
25250;DHT22;13201;51.148;13.738;2024-03-02T08:22:23;10.70;99.90
25250;DHT22;13201;51.148;13.738;2024-03-02T08:24:51;10.60;99.90
25250;DHT22;13201;51.148;13.738;2024-03-02T08:27:17;10.60;99.90
25250;DHT22;13201;51.148;13.738;2024-03-02T08:29:42;10.60;99.90
25250;DHT22;13201;51.148;13.738;2024-03-02T08:32:08;10.70;99.90
25250;DHT22;13201;51.148;13.738;2024-03-02T08:34:34;10.60;99.90
25250;DHT22;13201;51.148;13.738;2024-03-02T08:37:01;10.70;99.90
25250;DHT22;13201;51.148;13.738;2024-03-02T08:39:27;10.80;99.90
25250;DHT22;13201;51.148;13.738;2024-03-02T08:41:53;10.90;99.90
25250;DHT22;13201;51.148;13.738;2024-03-02T08:44:20;10.90;99.90
25250;DHT22;13201;51.148;13.738;2024-03-02T08:46:45;10.90;99.90
25250;DHT22;13201;51.148;13.738;2024-03-02T08:49:12;11.00;99.90
25250;DHT22;13201;51.148;13.738;2024-03-02T08:51:37;10.90;99.90
25250;DHT22;13201;51.148;13.738;2024-03-02T08:54:03;10.90;99.90
25250;DHT22;13201;51.148;13.738;2024-03-02T08:56:30;10.90;99.90
25250;DHT22;13201;51.148;13.738;2024-03-02T08:58:56;10.90;99.90
25250;DHT22;13201;51.148;13.738;2024-03-02T09:01:22;11.00;99.90
25250;DHT22;13201;51.148;13.738;2024-03-02T09:03:48;11.00;99.90
25250;DHT22;13201;51.148;13.738;2024-03-02T09:06:15;10.90;99.90
25250;DHT22;13201;51.148;13.738;2024-03-02T09:08:45;11.00;99.90
25250;DHT22;13201;51.148;13.738;2024-03-02T09:11:11;11.10;99.90
25250;DHT22;13201;51.148;13.738;2024-03-02T09:13:38;11.00;99.90
25250;DHT22;13201;51.148;13.738;2024-03-02T09:16:04;11.10;99.90
25250;DHT22;13201;51.148;13.738;2024-03-02T09:18:30;11.20;99.90
25250;DHT22;13201;51.148;13.738;2024-03-02T09:20:56;11.20;99.90
25250;DHT22;13201;51.148;13.738;2024-03-02T09:23:22;11.30;99.90
25250;DHT22;13201;51.148;13.738;2024-03-02T09:25:47;11.20;99.90
25250;DHT22;13201;51.148;13.738;2024-03-02T09:28:15;11.30;99.90
25250;DHT22;13201;51.148;13.738;2024-03-02T09:30:40;11.50;99.90
25250;DHT22;13201;51.148;13.738;2024-03-02T09:33:06;11.50;99.90
25250;DHT22;13201;51.148;13.738;2024-03-02T09:35:32;11.60;99.90
25250;DHT22;13201;51.148;13.738;2024-03-02T09:37:58;11.70;99.90
25250;DHT22;13201;51.148;13.738;2024-03-02T09:40:23;11.70;99.90
25250;DHT22;13201;51.148;13.738;2024-03-02T09:42:50;11.80;99.90
25250;DHT22;13201;51.148;13.738;2024-03-02T09:45:27;11.80;99.90
25250;DHT22;13201;51.148;13.738;2024-03-02T09:47:53;11.80;99.90
25250;DHT22;13201;51.148;13.738;2024-03-02T09:50:18;11.90;99.90
25250;DHT22;13201;51.148;13.738;2024-03-02T09:52:44;11.90;99.90
25250;DHT22;13201;51.148;13.738;2024-03-02T09:55:14;11.90;99.90
25250;DHT22;13201;51.148;13.738;2024-03-02T09:57:41;12.00;99.90
25250;DHT22;13201;51.148;13.738;2024-03-02T10:00:08;12.00;99.90
25250;DHT22;13201;51.148;13.738;2024-03-02T10:02:34;12.10;99.90
25250;DHT22;13201;51.148;13.738;2024-03-02T10:04:59;12.10;99.90
25250;DHT22;13201;51.148;13.738;2024-03-02T10:07:25;12.10;99.90
25250;DHT22;13201;51.148;13.738;2024-03-02T10:09:51;12.10;99.90
25250;DHT22;13201;51.148;13.738;2024-03-02T10:12:18;12.00;99.90
25250;DHT22;13201;51.148;13.738;2024-03-02T10:14:44;12.10;99.90
25250;DHT22;13201;51.148;13.738;2024-03-02T10:17:14;12.10;99.90
25250;DHT22;13201;51.148;13.738;2024-03-02T10:19:41;12.10;99.90
25250;DHT22;13201;51.148;13.738;2024-03-02T10:22:08;12.20;99.90
25250;DHT22;13201;51.148;13.738;2024-03-02T10:24:44;12.20;99.90
25250;DHT22;13201;51.148;13.738;2024-03-02T10:27:16;12.30;99.90
25250;DHT22;13201;51.148;13.738;2024-03-02T10:29:46;12.20;99.90
25250;DHT22;13201;51.148;13.738;2024-03-02T10:32:12;12.30;99.90
25250;DHT22;13201;51.148;13.738;2024-03-02T10:34:39;12.50;99.90
25250;DHT22;13201;51.148;13.738;2024-03-02T10:37:06;12.40;99.90
25250;DHT22;13201;51.148;13.738;2024-03-02T10:39:34;12.30;99.90
25250;DHT22;13201;51.148;13.738;2024-03-02T10:42:02;12.30;99.90
25250;DHT22;13201;51.148;13.738;2024-03-02T10:44:29;12.40;99.90
25250;DHT22;13201;51.148;13.738;2024-03-02T10:46:56;12.70;99.90
25250;DHT22;13201;51.148;13.738;2024-03-02T10:49:23;12.80;99.90
25250;DHT22;13201;51.148;13.738;2024-03-02T10:51:52;12.80;99.90
25250;DHT22;13201;51.148;13.738;2024-03-02T10:54:17;12.90;99.90
25250;DHT22;13201;51.148;13.738;2024-03-02T10:56:44;12.80;99.90
25250;DHT22;13201;51.148;13.738;2024-03-02T10:59:34;13.00;99.90
25250;DHT22;13201;51.148;13.738;2024-03-02T11:02:02;13.10;99.90
25250;DHT22;13201;51.148;13.738;2024-03-02T11:04:29;13.00;99.90
25250;DHT22;13201;51.148;13.738;2024-03-02T11:07:08;13.00;99.90
25250;DHT22;13201;51.148;13.738;2024-03-02T11:09:38;13.10;99.90
25250;DHT22;13201;51.148;13.738;2024-03-02T11:12:31;13.10;99.90
25250;DHT22;13201;51.148;13.738;2024-03-02T11:14:58;13.30;99.90
25250;DHT22;13201;51.148;13.738;2024-03-02T11:17:25;13.40;99.90
25250;DHT22;13201;51.148;13.738;2024-03-02T11:19:52;13.40;99.90
25250;DHT22;13201;51.148;13.738;2024-03-02T11:22:18;13.20;99.90
25250;DHT22;13201;51.148;13.738;2024-03-02T11:24:51;13.50;99.90
25250;DHT22;13201;51.148;13.738;2024-03-02T11:33:02;13.60;99.90
25250;DHT22;13201;51.148;13.738;2024-03-02T11:35:44;13.90;99.90
25250;DHT22;13201;51.148;13.738;2024-03-02T11:38:31;14.10;99.90
25250;DHT22;13201;51.148;13.738;2024-03-02T11:40:59;14.30;99.90
25250;DHT22;13201;51.148;13.738;2024-03-02T11:43:27;14.30;99.90
25250;DHT22;13201;51.148;13.738;2024-03-02T11:46:00;14.20;99.90
25250;DHT22;13201;51.148;13.738;2024-03-02T11:48:26;13.90;99.90
25250;DHT22;13201;51.148;13.738;2024-03-02T11:50:52;13.90;99.90
25250;DHT22;13201;51.148;13.738;2024-03-02T11:53:20;14.30;99.90
25250;DHT22;13201;51.148;13.738;2024-03-02T11:55:46;14.50;99.90
25250;DHT22;13201;51.148;13.738;2024-03-02T11:58:13;14.60;99.90
25250;DHT22;13201;51.148;13.738;2024-03-02T12:00:39;14.70;99.90
25250;DHT22;13201;51.148;13.738;2024-03-02T12:03:06;14.90;99.90
25250;DHT22;13201;51.148;13.738;2024-03-02T12:05:32;14.90;99.90
25250;DHT22;13201;51.148;13.738;2024-03-02T12:07:59;15.00;99.90
25250;DHT22;13201;51.148;13.738;2024-03-02T12:10:26;15.30;99.90
25250;DHT22;13201;51.148;13.738;2024-03-02T12:12:58;15.20;99.90
25250;DHT22;13201;51.148;13.738;2024-03-02T12:15:26;15.00;99.90
25250;DHT22;13201;51.148;13.738;2024-03-02T12:17:56;14.90;99.90
25250;DHT22;13201;51.148;13.738;2024-03-02T12:20:23;14.60;99.90
25250;DHT22;13201;51.148;13.738;2024-03-02T12:22:53;14.60;99.90
25250;DHT22;13201;51.148;13.738;2024-03-02T12:25:20;14.70;99.90
25250;DHT22;13201;51.148;13.738;2024-03-02T12:27:47;14.70;99.90
25250;DHT22;13201;51.148;13.738;2024-03-02T12:30:16;14.50;99.90
25250;DHT22;13201;51.148;13.738;2024-03-02T12:32:42;14.50;99.90
25250;DHT22;13201;51.148;13.738;2024-03-02T12:35:08;14.40;99.90
25250;DHT22;13201;51.148;13.738;2024-03-02T12:37:42;14.30;99.90
25250;DHT22;13201;51.148;13.738;2024-03-02T12:40:13;14.30;99.90
25250;DHT22;13201;51.148;13.738;2024-03-02T12:42:40;14.20;99.90
25250;DHT22;13201;51.148;13.738;2024-03-02T12:45:08;14.30;99.90
25250;DHT22;13201;51.148;13.738;2024-03-02T12:47:34;14.30;99.90
25250;DHT22;13201;51.148;13.738;2024-03-02T12:50:00;14.20;99.90
25250;DHT22;13201;51.148;13.738;2024-03-02T12:52:26;14.10;99.90
25250;DHT22;13201;51.148;13.738;2024-03-02T12:54:52;14.10;99.90
25250;DHT22;13201;51.148;13.738;2024-03-02T12:57:21;14.00;99.90
25250;DHT22;13201;51.148;13.738;2024-03-02T12:59:47;14.10;99.90
25250;DHT22;13201;51.148;13.738;2024-03-02T13:02:19;14.00;99.90
25250;DHT22;13201;51.148;13.738;2024-03-02T13:04:52;14.00;99.90
25250;DHT22;13201;51.148;13.738;2024-03-02T13:07:20;13.70;99.90
25250;DHT22;13201;51.148;13.738;2024-03-02T13:09:46;13.80;99.90
25250;DHT22;13201;51.148;13.738;2024-03-02T13:12:17;13.90;99.90
25250;DHT22;13201;51.148;13.738;2024-03-02T13:14:43;14.10;99.90
25250;DHT22;13201;51.148;13.738;2024-03-02T13:17:09;14.10;99.90
25250;DHT22;13201;51.148;13.738;2024-03-02T13:19:35;13.90;99.90
25250;DHT22;13201;51.148;13.738;2024-03-02T13:22:01;14.00;99.90
25250;DHT22;13201;51.148;13.738;2024-03-02T13:24:30;14.00;99.90
25250;DHT22;13201;51.148;13.738;2024-03-02T13:26:56;14.10;99.90
25250;DHT22;13201;51.148;13.738;2024-03-02T13:29:24;14.10;99.90
25250;DHT22;13201;51.148;13.738;2024-03-02T13:31:50;14.10;99.90
25250;DHT22;13201;51.148;13.738;2024-03-02T13:34:16;14.00;99.90
25250;DHT22;13201;51.148;13.738;2024-03-02T13:36:41;14.00;99.90
25250;DHT22;13201;51.148;13.738;2024-03-02T13:39:07;14.10;99.90
25250;DHT22;13201;51.148;13.738;2024-03-02T13:41:36;14.00;99.90
25250;DHT22;13201;51.148;13.738;2024-03-02T13:44:01;13.90;99.90
25250;DHT22;13201;51.148;13.738;2024-03-02T13:46:27;13.90;99.90
25250;DHT22;13201;51.148;13.738;2024-03-02T13:48:54;14.00;99.90
25250;DHT22;13201;51.148;13.738;2024-03-02T13:51:20;13.90;99.90
25250;DHT22;13201;51.148;13.738;2024-03-02T13:53:46;13.60;99.90
25250;DHT22;13201;51.148;13.738;2024-03-02T13:56:12;13.60;99.90
25250;DHT22;13201;51.148;13.738;2024-03-02T13:58:38;13.40;99.90
25250;DHT22;13201;51.148;13.738;2024-03-02T14:01:04;13.50;99.90
25250;DHT22;13201;51.148;13.738;2024-03-02T14:03:31;13.40;99.90
25250;DHT22;13201;51.148;13.738;2024-03-02T14:05:56;13.40;99.90
25250;DHT22;13201;51.148;13.738;2024-03-02T14:08:23;13.60;99.90
25250;DHT22;13201;51.148;13.738;2024-03-02T14:10:49;13.60;99.90
25250;DHT22;13201;51.148;13.738;2024-03-02T14:13:14;13.60;99.90
25250;DHT22;13201;51.148;13.738;2024-03-02T14:15:41;13.40;99.90
25250;DHT22;13201;51.148;13.738;2024-03-02T14:18:07;13.20;99.90
25250;DHT22;13201;51.148;13.738;2024-03-02T14:20:35;13.30;99.90
25250;DHT22;13201;51.148;13.738;2024-03-02T14:23:01;13.40;99.90
25250;DHT22;13201;51.148;13.738;2024-03-02T14:25:28;13.10;99.90
25250;DHT22;13201;51.148;13.738;2024-03-02T14:27:57;13.10;99.90
25250;DHT22;13201;51.148;13.738;2024-03-02T14:30:23;12.90;99.90
25250;DHT22;13201;51.148;13.738;2024-03-02T14:32:49;12.90;99.90
25250;DHT22;13201;51.148;13.738;2024-03-02T14:35:14;12.90;99.90
25250;DHT22;13201;51.148;13.738;2024-03-02T14:37:40;12.90;99.90
25250;DHT22;13201;51.148;13.738;2024-03-02T14:40:07;13.00;99.90
25250;DHT22;13201;51.148;13.738;2024-03-02T14:42:35;13.00;99.90
25250;DHT22;13201;51.148;13.738;2024-03-02T14:45:01;13.00;99.90
25250;DHT22;13201;51.148;13.738;2024-03-02T14:47:29;12.90;99.90
25250;DHT22;13201;51.148;13.738;2024-03-02T14:49:55;12.90;99.90
25250;DHT22;13201;51.148;13.738;2024-03-02T14:52:21;12.90;99.90
25250;DHT22;13201;51.148;13.738;2024-03-02T14:54:47;12.80;99.90
25250;DHT22;13201;51.148;13.738;2024-03-02T14:57:12;12.60;99.90
25250;DHT22;13201;51.148;13.738;2024-03-02T14:59:38;12.80;99.90
25250;DHT22;13201;51.148;13.738;2024-03-02T15:02:05;12.60;99.90
25250;DHT22;13201;51.148;13.738;2024-03-02T15:04:31;12.60;99.90
25250;DHT22;13201;51.148;13.738;2024-03-02T15:06:57;12.50;99.90
25250;DHT22;13201;51.148;13.738;2024-03-02T15:09:22;12.60;99.90
25250;DHT22;13201;51.148;13.738;2024-03-02T15:11:48;12.40;99.90
25250;DHT22;13201;51.148;13.738;2024-03-02T15:14:14;12.50;99.90
25250;DHT22;13201;51.148;13.738;2024-03-02T15:16:40;12.60;99.90
25250;DHT22;13201;51.148;13.738;2024-03-02T15:19:07;12.60;99.90
25250;DHT22;13201;51.148;13.738;2024-03-02T15:21:33;12.70;99.90
25250;DHT22;13201;51.148;13.738;2024-03-02T15:23:59;12.60;99.90
25250;DHT22;13201;51.148;13.738;2024-03-02T15:26:24;12.60;99.90
25250;DHT22;13201;51.148;13.738;2024-03-02T15:28:50;12.50;99.90
25250;DHT22;13201;51.148;13.738;2024-03-02T15:31:16;12.50;99.90
25250;DHT22;13201;51.148;13.738;2024-03-02T15:33:42;12.40;99.90
25250;DHT22;13201;51.148;13.738;2024-03-02T15:36:08;12.50;99.90
25250;DHT22;13201;51.148;13.738;2024-03-02T15:38:34;12.50;99.90
25250;DHT22;13201;51.148;13.738;2024-03-02T15:41:03;12.50;99.90
25250;DHT22;13201;51.148;13.738;2024-03-02T15:43:29;12.50;99.90
25250;DHT22;13201;51.148;13.738;2024-03-02T15:45:56;12.60;99.90
25250;DHT22;13201;51.148;13.738;2024-03-02T15:48:22;12.60;99.90
25250;DHT22;13201;51.148;13.738;2024-03-02T15:50:49;12.60;99.90